createdAt,value
2022-09-28T00:04:29.152Z,97059.83
2022-09-28T00:14:53.902Z,97047.68
2022-09-28T00:25:21.454Z,97049.77
2022-09-28T00:36:01.009Z,97049.30
2022-09-28T00:46:34.950Z,97049.86
2022-09-28T00:57:02.578Z,97050.77
2022-09-28T01:07:29.536Z,97057.67
2022-09-28T01:18:06.821Z,97060.95
2022-09-28T01:28:32.553Z,97059.52
2022-09-28T01:39:02.156Z,97067.39
2022-09-28T01:49:31.809Z,97067.98
2022-09-28T02:00:02.639Z,97060.63
2022-09-28T02:10:33.953Z,97058.82
2022-09-28T02:21:06.997Z,97060.58
2022-09-28T02:31:31.812Z,97068.20
2022-09-28T02:42:07.371Z,97064.30
2022-09-28T02:52:53.354Z,97068.61
2022-09-28T03:03:25.125Z,97073.17
2022-09-28T03:13:50.328Z,97070.67
2022-09-28T03:24:14.935Z,97077.38
2022-09-28T03:34:39.486Z,97082.43
2022-09-28T03:45:05.178Z,97091.09
2022-09-28T03:55:29.969Z,97091.22
2022-09-28T04:05:54.605Z,97085.03
2022-09-28T04:16:19.327Z,97087.16
2022-09-28T04:26:44.030Z,97081.95
2022-09-28T04:37:08.688Z,97074.75
2022-09-28T04:47:33.298Z,97067.63
2022-09-28T04:58:01.980Z,97066.08
2022-09-28T05:08:27.012Z,97068.64
2022-09-28T05:18:55.572Z,97069.05
2022-09-28T05:29:20.198Z,97079.40
2022-09-28T05:39:44.891Z,97084.18
2022-09-28T05:50:11.413Z,97083.05
2022-09-28T06:00:36.683Z,97089.89
2022-09-28T06:11:02.265Z,97086.70
2022-09-28T06:21:26.911Z,97074.77
2022-09-28T06:31:51.543Z,97076.27
2022-09-28T06:42:18.185Z,97081.35
2022-09-28T06:52:42.838Z,97074.09
2022-09-28T07:03:18.344Z,97072.80
2022-09-28T07:13:50.521Z,97069.20
2022-09-28T07:24:16.147Z,97065.23
2022-09-28T07:34:43.181Z,97080.33
2022-09-28T07:45:09.477Z,97078.17
2022-09-28T07:55:34.080Z,97070.74
2022-09-28T08:06:03.382Z,97062.27
2022-09-28T08:16:29.679Z,97046.69
2022-09-28T08:26:55.104Z,97037.69
2022-09-28T08:37:19.716Z,97037.17
2022-09-28T08:48:11.549Z,97047.46
2022-09-28T08:58:41.514Z,97044.80
2022-09-28T09:09:16.358Z,97057.67
2022-09-28T09:19:52.352Z,97050.80
2022-09-28T09:30:21.399Z,97048.89
2022-09-28T09:41:07.871Z,97045.29
2022-09-28T09:51:40.757Z,97042.83
2022-09-28T10:02:22.559Z,97029.89
2022-09-28T10:12:49.641Z,97013.16
2022-09-28T10:23:22.597Z,97008.63
2022-09-28T10:33:47.332Z,97003.17
2022-09-28T10:44:18.187Z,96980.37
2022-09-28T10:54:53.387Z,96959.01
2022-09-28T11:05:22.986Z,96948.05
2022-09-28T11:15:47.841Z,96939.80
2022-09-28T11:26:17.702Z,96934.94
2022-09-28T11:37:01.749Z,96926.98
2022-09-28T11:47:57.287Z,96926.66
2022-09-28T11:58:28.576Z,96921.13
2022-09-28T12:09:00.327Z,96901.32
2022-09-28T12:19:32.043Z,96887.79
2022-09-28T12:30:00.270Z,96889.56
2022-09-28T12:40:37.016Z,96893.30
2022-09-28T12:51:16.345Z,96891.76
2022-09-28T13:02:00.232Z,96891.17
2022-09-28T13:12:36.797Z,96882.11
2022-09-28T13:23:11.736Z,96879.03
2022-09-28T13:33:40.500Z,96872.80
2022-09-28T13:44:34.751Z,96868.34
2022-09-28T13:55:13.593Z,96858.32
2022-09-28T14:06:03.204Z,96852.87
2022-09-28T14:16:31.408Z,96838.90
2022-09-28T14:27:19.282Z,96830.05
2022-09-28T14:38:06.358Z,96827.95
2022-09-28T14:48:47.369Z,96820.64
2022-09-28T14:59:17.554Z,96808.89
2022-09-28T15:09:42.742Z,96808.25
2022-09-28T15:20:25.176Z,96812.67
2022-09-28T15:30:50.183Z,96810.77
2022-09-28T15:41:14.979Z,96824.98
2022-09-28T15:51:51.856Z,96836.40
2022-09-28T16:02:19.303Z,96859.90
2022-09-28T16:12:48.068Z,96886.41
2022-09-28T16:23:21.158Z,96883.55
2022-09-28T16:33:53.642Z,96879.77
2022-09-28T16:44:24.094Z,96873.91
2022-09-28T16:55:22.785Z,96874.53
2022-09-28T17:05:52.631Z,96881.38
2022-09-28T17:16:32.208Z,96880.16
2022-09-28T17:27:06.381Z,96899.75
2022-09-28T17:37:34.011Z,96906.38
2022-09-28T17:47:59.321Z,96911.95
2022-09-28T17:58:24.007Z,96919.62
2022-09-28T18:08:49.145Z,96931.61
2022-09-28T18:19:14.625Z,96942.73
2022-09-28T18:29:39.492Z,96949.52
2022-09-28T18:40:05.141Z,96950.43
2022-09-28T18:50:29.981Z,96961.02
2022-09-28T19:01:08.517Z,96962.23
2022-09-28T19:11:39.305Z,96966.03
2022-09-28T19:22:04.461Z,96983.91
2022-09-28T19:32:30.441Z,96995.52
2022-09-28T19:42:55.152Z,97007.52
2022-09-28T19:53:19.760Z,97011.84
2022-09-28T20:03:44.388Z,97017.70
2022-09-28T20:14:09.842Z,97022.83
2022-09-28T20:24:34.558Z,97047.25
2022-09-28T20:34:59.181Z,97059.95
2022-09-28T20:45:23.899Z,97060.31
2022-09-28T20:55:48.563Z,97067.36
2022-09-28T21:06:13.835Z,97074.72
2022-09-28T21:16:38.897Z,97097.38
2022-09-28T21:27:03.731Z,97108.92
2022-09-28T21:37:28.353Z,97103.55
2022-09-28T21:47:54.218Z,97131.27
2022-09-28T21:58:22.623Z,97142.30
2022-09-28T22:08:48.739Z,97139.40
2022-09-28T22:19:13.304Z,97145.73
2022-09-28T22:29:37.984Z,97151.36
2022-09-28T22:40:03.065Z,97165.39
2022-09-28T22:50:27.938Z,97171.50
2022-09-28T23:00:52.892Z,97190.11
2022-09-28T23:11:17.925Z,97192.70
2022-09-28T23:21:42.556Z,97183.74
2022-09-28T23:32:07.509Z,97182.16
2022-09-28T23:42:32.259Z,97196.08
2022-09-28T23:52:56.892Z,97211.25
